createdAt,value
2018-05-14T00:00:50.319Z,15.40
2018-05-14T00:02:50.506Z,15.41
2018-05-14T00:04:50.056Z,15.40
2018-05-14T00:06:50.293Z,15.36
2018-05-14T00:08:50.498Z,15.34
2018-05-14T00:10:50.636Z,15.32
2018-05-14T00:12:50.825Z,15.30
2018-05-14T00:14:49.978Z,15.29
2018-05-14T00:16:50.287Z,15.28
2018-05-14T00:18:50.475Z,15.23
2018-05-14T00:20:50.619Z,15.21
2018-05-14T00:22:50.791Z,15.20
2018-05-14T00:24:49.926Z,15.18
2018-05-14T00:26:50.142Z,15.15
2018-05-14T00:28:50.356Z,15.07
2018-05-14T00:30:50.575Z,15.04
2018-05-14T00:32:50.798Z,15.04
2018-05-14T00:34:50.108Z,14.98
2018-05-14T00:36:50.436Z,14.94
2018-05-14T00:38:50.669Z,14.95
2018-05-14T00:40:50.901Z,14.99
2018-05-14T00:42:50.058Z,15.01
2018-05-14T00:44:50.192Z,15.05
2018-05-14T00:46:50.422Z,15.07
2018-05-14T00:48:50.548Z,15.08
2018-05-14T00:50:50.702Z,15.13
2018-05-14T00:52:50.832Z,15.15
2018-05-14T00:54:49.995Z,15.19
2018-05-14T00:56:50.314Z,15.22
2018-05-14T00:58:50.444Z,15.26
2018-05-14T01:00:50.674Z,15.26
2018-05-14T01:02:50.866Z,15.26
2018-05-14T01:04:50.216Z,15.25
2018-05-14T01:06:50.489Z,15.25
2018-05-14T01:08:50.583Z,15.25
2018-05-14T01:10:50.764Z,15.25
2018-05-14T01:12:50.025Z,15.24
2018-05-14T01:14:50.122Z,15.24
2018-05-14T01:16:50.292Z,15.21
2018-05-14T01:18:50.410Z,15.21
2018-05-14T01:20:50.510Z,15.17
2018-05-14T01:22:50.611Z,15.16
2018-05-14T01:24:50.860Z,15.15
2018-05-14T01:26:50.144Z,15.13
2018-05-14T01:28:50.240Z,15.13
2018-05-14T01:30:50.411Z,15.13
2018-05-14T01:32:50.505Z,15.12
2018-05-14T01:34:50.001Z,15.11
2018-05-14T01:36:50.209Z,15.09
2018-05-14T01:38:50.303Z,15.08
2018-05-14T01:40:50.432Z,15.08
2018-05-14T01:42:50.679Z,15.07
2018-05-14T01:44:50.869Z,15.10
2018-05-14T01:46:50.115Z,15.11
2018-05-14T01:48:50.262Z,15.10
2018-05-14T01:50:50.491Z,15.09
2018-05-14T01:52:50.626Z,15.08
2018-05-14T01:54:49.930Z,15.09
2018-05-14T01:56:50.201Z,15.07
2018-05-14T01:58:50.329Z,15.05
2018-05-14T02:00:50.512Z,15.05
2018-05-14T02:02:50.627Z,15.02
2018-05-14T02:04:49.980Z,15.01
2018-05-14T02:06:50.598Z,15.00
2018-05-14T02:08:50.623Z,14.99
2018-05-14T02:10:50.766Z,14.99
2018-05-14T02:12:49.964Z,15.00
2018-05-14T02:14:50.094Z,14.99
2018-05-14T02:16:50.321Z,14.99
2018-05-14T02:18:50.517Z,14.99
2018-05-14T02:20:50.692Z,14.98
2018-05-14T02:22:49.895Z,14.99
2018-05-14T02:24:50.006Z,15.00
2018-05-14T02:26:50.352Z,14.99
2018-05-14T02:28:50.524Z,14.99
2018-05-14T02:30:50.662Z,14.96
2018-05-14T02:32:50.820Z,14.96
2018-05-14T02:34:50.122Z,14.93
2018-05-14T02:36:50.405Z,14.92
2018-05-14T02:38:50.514Z,14.92
2018-05-14T02:40:50.675Z,14.93
2018-05-14T02:42:50.797Z,14.93
2018-05-14T02:44:49.923Z,14.94
2018-05-14T02:46:50.160Z,14.95
2018-05-14T02:48:50.297Z,14.97
2018-05-14T02:50:50.469Z,14.96
2018-05-14T02:52:50.588Z,14.96
2018-05-14T02:54:50.738Z,14.95
2018-05-14T02:56:50.065Z,14.95
2018-05-14T02:58:50.249Z,14.95
2018-05-14T03:00:50.448Z,14.96
2018-05-14T03:02:50.589Z,14.96
2018-05-14T03:04:50.221Z,14.96
2018-05-14T03:06:50.553Z,14.96
2018-05-14T03:08:50.673Z,14.99
2018-05-14T03:10:50.792Z,15.00
2018-05-14T03:12:49.962Z,15.02
2018-05-14T03:14:50.167Z,15.03
2018-05-14T03:16:50.368Z,15.04
2018-05-14T03:18:50.526Z,15.06
2018-05-14T03:20:50.705Z,15.08
2018-05-14T03:22:50.875Z,15.10
2018-05-14T03:24:50.026Z,15.11
2018-05-14T03:26:50.249Z,15.08
2018-05-14T03:28:50.383Z,15.06
2018-05-14T03:30:50.540Z,15.06
2018-05-14T03:32:50.633Z,15.03
2018-05-14T03:34:50.236Z,15.03
2018-05-14T03:36:50.443Z,15.04
2018-05-14T03:38:50.542Z,15.07
2018-05-14T03:40:50.721Z,15.07
2018-05-14T03:42:50.816Z,15.07
2018-05-14T03:44:49.935Z,15.05
2018-05-14T03:46:50.105Z,15.05
2018-05-14T03:48:50.266Z,15.06
2018-05-14T03:50:50.380Z,15.06
2018-05-14T03:52:50.516Z,15.05
2018-05-14T03:54:50.703Z,15.05
2018-05-14T03:56:50.099Z,15.05
2018-05-14T03:58:50.240Z,15.04
2018-05-14T04:00:50.421Z,15.04
2018-05-14T04:02:50.125Z,15.05
2018-05-14T04:04:50.096Z,15.05
2018-05-14T04:06:50.847Z,15.05
2018-05-14T04:08:49.941Z,15.05
2018-05-14T04:10:50.137Z,15.05
2018-05-14T04:12:50.298Z,15.07
2018-05-14T04:14:50.505Z,15.07
2018-05-14T04:16:50.818Z,15.08
2018-05-14T04:18:50.015Z,15.08
2018-05-14T04:20:50.119Z,15.09
2018-05-14T04:22:50.280Z,15.14
2018-05-14T04:24:50.391Z,15.18
2018-05-14T04:26:50.223Z,15.26
2018-05-14T04:28:50.372Z,15.26
2018-05-14T04:30:50.538Z,15.35
2018-05-14T04:32:50.718Z,15.39
2018-05-14T04:34:50.324Z,15.43
2018-05-14T04:36:50.583Z,15.47
2018-05-14T04:38:50.722Z,15.56
2018-05-14T04:40:49.923Z,15.58
2018-05-14T04:42:50.116Z,15.65
2018-05-14T04:44:50.227Z,15.68
2018-05-14T04:46:50.587Z,15.72
2018-05-14T04:48:50.696Z,15.74
2018-05-14T04:50:50.872Z,15.77
2018-05-14T04:52:50.025Z,15.79
2018-05-14T04:54:50.230Z,15.78
2018-05-14T04:56:50.466Z,15.79
2018-05-14T04:58:50.550Z,15.79
2018-05-14T05:00:50.775Z,15.80
2018-05-14T05:02:49.910Z,15.83
2018-05-14T05:04:50.259Z,15.84
2018-05-14T05:06:50.572Z,15.90
2018-05-14T05:08:50.716Z,15.92
2018-05-14T05:10:50.886Z,15.97
2018-05-14T05:12:50.001Z,16.02
2018-05-14T05:14:50.157Z,16.06
2018-05-14T05:16:50.399Z,16.09
2018-05-14T05:18:50.532Z,16.18
2018-05-14T05:20:50.686Z,16.22
2018-05-14T05:22:51.165Z,16.22
2018-05-14T05:24:50.316Z,16.22
2018-05-14T05:26:50.608Z,16.26
2018-05-14T05:28:50.702Z,16.27
2018-05-14T05:30:50.890Z,16.30
2018-05-14T05:32:49.986Z,16.31
2018-05-14T05:34:50.373Z,16.33
2018-05-14T05:36:50.229Z,16.33
2018-05-14T05:38:50.440Z,16.36
2018-05-14T05:40:50.592Z,16.40
2018-05-14T05:42:50.746Z,16.46
2018-05-14T05:44:50.946Z,16.47
2018-05-14T05:46:50.132Z,16.52
2018-05-14T05:48:50.334Z,16.56
2018-05-14T05:50:50.420Z,16.67
2018-05-14T05:52:50.552Z,16.71
2018-05-14T05:54:50.719Z,16.68
2018-05-14T05:56:50.009Z,16.68
2018-05-14T05:58:50.183Z,16.70
2018-05-14T06:00:50.301Z,16.74
2018-05-14T06:02:50.521Z,16.73
2018-05-14T06:04:50.796Z,16.75
2018-05-14T06:06:49.990Z,16.80
2018-05-14T06:08:50.146Z,16.85
2018-05-14T06:10:50.354Z,16.98
2018-05-14T06:12:50.599Z,16.99
2018-05-14T06:14:50.736Z,16.89
2018-05-14T06:16:50.045Z,16.96
2018-05-14T06:18:50.182Z,16.96
2018-05-14T06:20:50.338Z,17.11
2018-05-14T06:22:50.420Z,17.11
2018-05-14T06:24:50.551Z,17.26
2018-05-14T06:26:50.852Z,17.28
2018-05-14T06:28:49.964Z,17.28
2018-05-14T06:30:50.072Z,17.53
2018-05-14T06:32:50.219Z,17.62
2018-05-14T06:34:50.635Z,17.80
2018-05-14T06:36:50.812Z,17.81
2018-05-14T06:38:49.978Z,17.91
2018-05-14T06:40:50.168Z,17.98
2018-05-14T06:42:50.264Z,17.99
2018-05-14T06:44:50.421Z,18.02
2018-05-14T06:46:50.656Z,18.03
2018-05-14T06:48:50.798Z,18.06
2018-05-14T06:50:49.905Z,18.21
2018-05-14T06:52:50.289Z,18.26
2018-05-14T06:54:50.483Z,18.33
2018-05-14T06:56:50.734Z,18.37
2018-05-14T06:58:50.865Z,18.36
2018-05-14T07:00:50.060Z,18.48
2018-05-14T07:02:50.171Z,18.46
2018-05-14T07:04:50.597Z,18.46
2018-05-14T07:06:50.877Z,18.47
2018-05-14T07:08:50.057Z,18.53
2018-05-14T07:10:50.260Z,18.51
2018-05-14T07:12:50.416Z,18.56
2018-05-14T07:14:50.553Z,18.56
2018-05-14T07:16:50.802Z,18.64
2018-05-14T07:18:49.984Z,18.73
2018-05-14T07:20:50.069Z,18.95
2018-05-14T07:22:50.178Z,19.05
2018-05-14T07:24:50.976Z,19.10
2018-05-14T07:26:50.562Z,19.21
2018-05-14T07:28:50.715Z,19.25
2018-05-14T07:30:49.945Z,19.21
2018-05-14T07:32:50.271Z,19.44
2018-05-14T07:34:50.607Z,19.6
2018-05-14T07:36:50.807Z,19.8
2018-05-14T07:38:50.194Z,19.9
2018-05-14T07:40:50.634Z,20.0
2018-05-14T07:42:50.724Z,20.2
2018-05-14T07:44:50.867Z,20.2
2018-05-14T07:46:50.356Z,20.5
2018-05-14T07:48:50.481Z,20.6
2018-05-14T07:50:50.674Z,20.8
2018-05-14T07:52:50.885Z,20.8
2018-05-14T07:54:50.465Z,20.9
2018-05-14T07:56:50.719Z,21.0
2018-05-14T07:58:50.898Z,21.2
2018-05-14T08:00:50.022Z,21.3
2018-05-14T08:02:50.184Z,21.4
2018-05-14T08:04:50.653Z,21.4
2018-05-14T08:06:50.889Z,21.6
2018-05-14T08:08:50.060Z,21.8
2018-05-14T08:10:50.174Z,21.8
2018-05-14T08:12:50.337Z,22.0
2018-05-14T08:14:50.516Z,22.0
2018-05-14T08:16:50.766Z,22.2
2018-05-14T08:18:50.900Z,22.3
2018-05-14T08:20:50.208Z,22.4
2018-05-14T08:22:50.375Z,22.4
2018-05-14T08:24:50.489Z,22.5
2018-05-14T08:26:50.838Z,22.6
2018-05-14T08:28:49.937Z,22.6
2018-05-14T08:30:50.061Z,22.50
2018-05-14T08:32:50.138Z,22.50
2018-05-14T08:34:50.461Z,22.17
2018-05-14T08:36:50.699Z,22.10
2018-05-14T08:38:50.841Z,22.06
2018-05-14T08:40:49.972Z,21.96
2018-05-14T08:42:50.310Z,21.98
2018-05-14T08:44:50.717Z,22.08
2018-05-14T08:46:50.129Z,22.11
2018-05-14T08:48:50.393Z,22.21
2018-05-14T08:50:50.638Z,22.23
2018-05-14T08:52:50.784Z,22.20
2018-05-14T08:54:50.859Z,22.20
2018-05-14T08:56:50.089Z,22.11
2018-05-14T08:58:50.209Z,22.3
2018-05-14T09:00:50.564Z,22.3
2018-05-14T09:02:50.844Z,22.4
2018-05-14T09:04:50.235Z,22.4
2018-05-14T09:06:50.481Z,22.5
2018-05-14T09:08:50.673Z,22.6
2018-05-14T09:10:50.747Z,22.6
2018-05-14T09:12:49.900Z,22.6
2018-05-14T09:14:50.055Z,22.7
2018-05-14T09:16:50.308Z,22.7
2018-05-14T09:18:50.464Z,22.8
2018-05-14T09:20:50.641Z,22.8
2018-05-14T09:22:50.789Z,22.9
2018-05-14T09:24:49.943Z,22.9
2018-05-14T09:26:50.160Z,22.9
2018-05-14T09:28:50.323Z,23.0
2018-05-14T09:30:50.587Z,23.0
2018-05-14T09:32:50.711Z,23.0
2018-05-14T09:34:50.152Z,23.0
2018-05-14T09:36:50.734Z,23.0
2018-05-14T09:38:50.848Z,23.1
2018-05-14T09:40:49.951Z,23.2
2018-05-14T09:42:50.057Z,23.2
2018-05-14T09:44:50.168Z,23.3
2018-05-14T09:46:50.407Z,23.3
2018-05-14T09:48:50.581Z,23.4
2018-05-14T09:50:50.716Z,23.4
2018-05-14T09:52:50.857Z,23.5
2018-05-14T09:54:49.981Z,23.6
2018-05-14T09:56:50.158Z,23.6
2018-05-14T09:58:50.311Z,23.6
2018-05-14T10:00:50.439Z,23.7
2018-05-14T10:02:50.526Z,23.7
2018-05-14T10:04:50.983Z,23.7
2018-05-14T10:06:50.322Z,23.7
2018-05-14T10:08:50.469Z,23.7
2018-05-14T10:10:50.600Z,23.6
2018-05-14T10:12:50.733Z,23.6
2018-05-14T10:14:50.869Z,23.6
2018-05-14T10:16:50.066Z,23.6
2018-05-14T10:18:50.683Z,23.6
2018-05-14T10:20:50.046Z,23.5
2018-05-14T10:22:50.167Z,23.5
2018-05-14T10:24:50.289Z,23.5
2018-05-14T10:26:50.457Z,23.5
2018-05-14T10:28:50.583Z,23.5
2018-05-14T10:30:50.797Z,23.6
2018-05-14T10:32:49.923Z,23.7
2018-05-14T10:34:50.443Z,23.7
2018-05-14T10:36:50.665Z,23.8
2018-05-14T10:38:50.975Z,23.8
2018-05-14T10:40:50.345Z,23.8
2018-05-14T10:42:50.491Z,23.9
2018-05-14T10:44:50.754Z,23.9
2018-05-14T10:46:51.033Z,24.0
2018-05-14T10:48:50.276Z,24.2
2018-05-14T10:50:50.424Z,24.2
2018-05-14T10:52:51.084Z,24.3
2018-05-14T10:54:50.284Z,24.3
2018-05-14T10:56:50.520Z,24.4
2018-05-14T10:58:50.649Z,24.4
2018-05-14T11:00:50.757Z,24.5
2018-05-14T11:02:49.938Z,24.5
2018-05-14T11:04:50.291Z,24.5
2018-05-14T11:06:50.514Z,24.4
2018-05-14T11:08:50.651Z,24.5
2018-05-14T11:10:50.801Z,24.5
2018-05-14T11:12:49.995Z,24.5
2018-05-14T11:14:50.177Z,24.5
2018-05-14T11:16:50.422Z,24.4
2018-05-14T11:18:51.065Z,24.4
2018-05-14T11:20:50.312Z,24.4
2018-05-14T11:22:50.401Z,24.4
2018-05-14T11:24:50.527Z,24.4
2018-05-14T11:26:50.833Z,24.4
2018-05-14T11:28:49.975Z,24.4
2018-05-14T11:30:50.095Z,24.5
2018-05-14T11:32:50.252Z,24.6
2018-05-14T11:34:50.739Z,24.7
2018-05-14T11:36:49.984Z,24.7
2018-05-14T11:38:50.171Z,24.8
2018-05-14T11:40:50.290Z,24.8
2018-05-14T11:42:50.403Z,24.9
2018-05-14T11:44:50.522Z,25.0
2018-05-14T11:46:50.756Z,25.2
2018-05-14T11:48:50.001Z,25.2
2018-05-14T11:50:50.425Z,25.3
2018-05-14T11:52:50.670Z,25.4
2018-05-14T11:54:50.757Z,25.5
2018-05-14T11:56:50.179Z,25.6
2018-05-14T11:58:50.782Z,25.5
2018-05-14T12:00:49.888Z,25.5
2018-05-14T12:02:50.346Z,25.5
2018-05-14T12:04:50.867Z,25.5
2018-05-14T12:06:50.162Z,25.6
2018-05-14T12:08:50.299Z,25.5
2018-05-14T12:10:50.504Z,25.5
2018-05-14T12:12:50.614Z,25.4
2018-05-14T12:14:50.695Z,25.4
2018-05-14T12:16:49.937Z,25.2
2018-05-14T12:18:50.042Z,25.2
2018-05-14T12:20:50.098Z,25.2
2018-05-14T12:22:50.282Z,25.1
2018-05-14T12:24:50.409Z,25.2
2018-05-14T12:26:50.686Z,25.3
2018-05-14T12:28:50.817Z,25.4
2018-05-14T12:30:49.957Z,25.4
2018-05-14T12:32:50.099Z,25.4
2018-05-14T12:34:50.444Z,25.6
2018-05-14T12:36:50.713Z,25.6
2018-05-14T12:38:50.937Z,25.6
2018-05-14T12:40:50.107Z,25.7
2018-05-14T12:42:50.209Z,25.8
2018-05-14T12:44:50.331Z,25.8
2018-05-14T12:46:50.537Z,25.8
2018-05-14T12:48:50.672Z,25.8
2018-05-14T12:50:50.748Z,25.9
2018-05-14T12:52:49.933Z,26.0
2018-05-14T12:54:50.158Z,26.0
2018-05-14T12:56:50.508Z,26.0
2018-05-14T12:58:50.676Z,26.2
2018-05-14T13:00:50.761Z,26.2
2018-05-14T13:02:49.984Z,26.3
2018-05-14T13:04:50.555Z,26.3
2018-05-14T13:06:50.845Z,26.3
2018-05-14T13:08:50.031Z,26.3
2018-05-14T13:10:50.197Z,26.4
2018-05-14T13:12:50.337Z,26.4
2018-05-14T13:14:50.433Z,26.5
2018-05-14T13:16:50.704Z,26.5
2018-05-14T13:18:50.818Z,26.5
2018-05-14T13:20:49.942Z,26.6
2018-05-14T13:22:50.052Z,26.7
2018-05-14T13:24:50.140Z,26.8
2018-05-14T13:26:50.394Z,26.8
2018-05-14T13:28:50.478Z,26.8
2018-05-14T13:30:50.640Z,26.8
2018-05-14T13:32:50.773Z,26.9
2018-05-14T13:34:50.238Z,27.0
2018-05-14T13:36:50.506Z,27.0
2018-05-14T13:38:50.636Z,27.0
2018-05-14T13:40:50.836Z,27.2
2018-05-14T13:42:50.364Z,27.2
2018-05-14T13:44:50.467Z,27.3
2018-05-14T13:46:50.701Z,27.4
2018-05-14T13:48:50.883Z,27.4
2018-05-14T13:50:50.308Z,27.5
2018-05-14T13:52:50.532Z,27.5
2018-05-14T13:54:50.625Z,27.6
2018-05-14T13:56:49.909Z,27.6
2018-05-14T13:58:50.024Z,27.7
2018-05-14T14:00:50.104Z,27.7
2018-05-14T14:02:50.254Z,27.6
2018-05-14T14:04:50.946Z,27.5
2018-05-14T14:06:50.268Z,27.4
2018-05-14T14:08:50.355Z,27.4
2018-05-14T14:10:50.527Z,27.4
2018-05-14T14:12:50.752Z,27.4
2018-05-14T14:14:49.921Z,27.4
2018-05-14T14:16:50.049Z,27.5
2018-05-14T14:18:50.159Z,27.5
2018-05-14T14:20:50.315Z,27.5
2018-05-14T14:22:50.444Z,27.5
2018-05-14T14:24:50.621Z,27.5
2018-05-14T14:26:49.930Z,27.6
2018-05-14T14:28:50.148Z,27.6
2018-05-14T14:30:50.378Z,27.6
2018-05-14T14:32:50.519Z,27.6
2018-05-14T14:34:50.305Z,27.7
2018-05-14T14:36:50.600Z,27.7
2018-05-14T14:38:50.219Z,27.7
2018-05-14T14:40:50.536Z,27.8
2018-05-14T14:42:50.856Z,27.8
2018-05-14T14:44:50.072Z,27.7
2018-05-14T14:46:50.265Z,27.8
2018-05-14T14:48:50.375Z,27.8
2018-05-14T14:50:50.851Z,28.0
2018-05-14T14:52:50.255Z,28.0
2018-05-14T14:54:50.530Z,28.1
2018-05-14T14:56:50.320Z,28.0
2018-05-14T14:58:50.630Z,27.8
2018-05-14T15:00:50.804Z,27.8
2018-05-14T15:02:50.475Z,27.5
2018-05-14T15:04:50.113Z,27.3
2018-05-14T15:06:50.435Z,27.1
2018-05-14T15:08:50.684Z,26.8
2018-05-14T15:10:50.837Z,26.8
2018-05-14T15:12:49.973Z,26.51
2018-05-14T15:14:50.085Z,26.05
2018-05-14T15:16:49.958Z,26.05
2018-05-14T15:18:50.078Z,25.63
2018-05-14T15:20:50.202Z,25.63
2018-05-14T15:22:50.267Z,25.30
2018-05-14T15:24:50.365Z,25.15
2018-05-14T15:26:50.575Z,25.13
2018-05-14T15:28:50.757Z,25.13
2018-05-14T15:30:49.940Z,25.17
2018-05-14T15:32:50.057Z,25.22
2018-05-14T15:34:50.581Z,25.20
2018-05-14T15:36:49.973Z,25.19
2018-05-14T15:38:50.076Z,25.21
2018-05-14T15:40:50.241Z,25.24
2018-05-14T15:42:50.465Z,25.28
2018-05-14T15:44:50.643Z,25.28
2018-05-14T15:46:50.873Z,25.38
2018-05-14T15:48:50.025Z,25.50
2018-05-14T15:50:50.134Z,25.5
2018-05-14T15:52:50.311Z,25.5
2018-05-14T15:54:50.472Z,25.5
2018-05-14T15:56:50.724Z,25.5
2018-05-14T15:58:50.797Z,25.5
2018-05-14T16:00:49.966Z,25.5
2018-05-14T16:02:50.119Z,25.4
2018-05-14T16:04:50.418Z,25.4
2018-05-14T16:06:50.652Z,25.4
2018-05-14T16:08:50.816Z,25.4
2018-05-14T16:10:49.995Z,25.3
2018-05-14T16:12:50.155Z,25.3
2018-05-14T16:14:50.262Z,25.3
2018-05-14T16:16:50.506Z,25.3
2018-05-14T16:18:50.620Z,25.4
2018-05-14T16:20:51.697Z,25.5
2018-05-14T16:22:50.850Z,25.7
2018-05-14T16:24:49.987Z,25.8
2018-05-14T16:26:50.225Z,25.8
2018-05-14T16:28:50.320Z,25.8
2018-05-14T16:30:50.470Z,25.8
2018-05-14T16:32:50.591Z,25.7
2018-05-14T16:34:50.853Z,25.7
2018-05-14T16:36:50.210Z,25.7
2018-05-14T16:38:50.379Z,25.7
2018-05-14T16:40:50.594Z,25.6
2018-05-14T16:42:50.781Z,25.6
2018-05-14T16:44:49.867Z,25.7
2018-05-14T16:46:50.070Z,25.8
2018-05-14T16:48:50.205Z,25.8
2018-05-14T16:50:50.328Z,25.8
2018-05-14T16:52:50.414Z,25.8
2018-05-14T16:54:50.623Z,25.8
2018-05-14T16:56:49.934Z,25.7
2018-05-14T16:58:50.050Z,25.6
2018-05-14T17:00:50.177Z,25.6
2018-05-14T17:02:50.290Z,25.5
2018-05-14T17:04:50.608Z,25.39
2018-05-14T17:06:50.775Z,25.27
2018-05-14T17:08:49.935Z,25.02
2018-05-14T17:10:50.084Z,25.02
2018-05-14T17:12:50.192Z,24.68
2018-05-14T17:14:50.337Z,24.52
2018-05-14T17:16:50.775Z,24.27
2018-05-14T17:18:49.928Z,24.13
2018-05-14T17:20:50.091Z,23.99
2018-05-14T17:22:50.232Z,23.89
2018-05-14T17:24:50.359Z,23.86
2018-05-14T17:26:50.595Z,23.74
2018-05-14T17:28:50.668Z,23.70
2018-05-14T17:30:50.878Z,23.63
2018-05-14T17:32:50.003Z,23.61
2018-05-14T17:34:50.434Z,23.55
2018-05-14T17:36:50.677Z,23.52
2018-05-14T17:38:50.757Z,23.41
2018-05-14T17:40:49.917Z,23.32
2018-05-14T17:42:50.120Z,23.27
2018-05-14T17:44:50.243Z,23.07
2018-05-14T17:46:50.646Z,22.98
2018-05-14T17:48:50.847Z,22.78
2018-05-14T17:50:49.982Z,22.71
2018-05-14T17:52:50.550Z,22.54
2018-05-14T17:54:50.756Z,22.48
2018-05-14T17:56:50.084Z,22.15
2018-05-14T17:58:50.289Z,21.98
2018-05-14T18:00:50.458Z,21.72
2018-05-14T18:02:50.627Z,21.59
2018-05-14T18:04:49.972Z,21.33
2018-05-14T18:06:50.239Z,20.82
2018-05-14T18:08:50.392Z,20.82
2018-05-14T18:10:51.400Z,19.98
2018-05-14T18:12:49.942Z,19.79
2018-05-14T18:14:50.160Z,19.42
2018-05-14T18:16:50.580Z,19.21
2018-05-14T18:18:50.707Z,19.04
2018-05-14T18:20:50.852Z,19.04
2018-05-14T18:22:50.021Z,18.97
2018-05-14T18:24:50.181Z,18.84
2018-05-14T18:26:50.689Z,18.35
2018-05-14T18:28:50.065Z,18.15
2018-05-14T18:30:50.266Z,17.75
2018-05-14T18:32:50.390Z,17.67
2018-05-14T18:34:50.704Z,17.36
2018-05-14T18:36:50.015Z,17.25
2018-05-14T18:38:50.162Z,17.02
2018-05-14T18:40:50.380Z,16.93
2018-05-14T18:42:50.522Z,16.82
2018-05-14T18:44:50.598Z,16.64
2018-05-14T18:46:49.901Z,16.59
2018-05-14T18:48:49.996Z,16.53
2018-05-14T18:50:50.095Z,16.53
2018-05-14T18:52:50.353Z,16.50
2018-05-14T18:54:50.461Z,16.47
2018-05-14T18:56:50.692Z,16.37
2018-05-14T18:58:50.818Z,16.26
2018-05-14T19:00:49.977Z,16.22
2018-05-14T19:02:50.112Z,16.09
2018-05-14T19:04:50.387Z,16.04
2018-05-14T19:06:50.672Z,16.05
2018-05-14T19:08:50.909Z,16.05
2018-05-14T19:10:50.037Z,16.00
2018-05-14T19:12:50.191Z,15.84
2018-05-14T19:14:50.356Z,15.82
2018-05-14T19:16:50.689Z,15.73
2018-05-14T19:18:50.511Z,15.67
2018-05-14T19:20:50.675Z,15.58
2018-05-14T19:22:50.850Z,15.59
2018-05-14T19:24:50.015Z,15.63
2018-05-14T19:26:50.229Z,15.69
2018-05-14T19:28:50.338Z,15.67
2018-05-14T19:30:50.564Z,15.68
2018-05-14T19:32:50.674Z,15.65
2018-05-14T19:34:50.009Z,15.58
2018-05-14T19:36:50.211Z,15.57
2018-05-14T19:38:50.436Z,15.54
2018-05-14T19:40:50.588Z,15.53
2018-05-14T19:42:49.914Z,15.54
2018-05-14T19:44:50.017Z,15.56
2018-05-14T19:46:50.295Z,15.57
2018-05-14T19:48:50.414Z,15.58
2018-05-14T19:50:50.804Z,15.58
2018-05-14T19:52:50.034Z,15.58
2018-05-14T19:54:50.157Z,15.58
2018-05-14T19:56:50.463Z,15.57
2018-05-14T19:58:50.583Z,15.55
2018-05-14T20:00:50.745Z,15.53
2018-05-14T20:02:49.932Z,15.51
2018-05-14T20:04:50.253Z,15.51
2018-05-14T20:06:51.074Z,15.46
2018-05-14T20:08:50.286Z,15.45
2018-05-14T20:10:50.474Z,15.42
2018-05-14T20:12:50.927Z,15.37
2018-05-14T20:14:50.185Z,15.36
2018-05-14T20:16:50.425Z,15.34
2018-05-14T20:18:50.657Z,15.34
2018-05-14T20:20:50.859Z,15.26
2018-05-14T20:22:50.061Z,15.23
2018-05-14T20:24:50.243Z,15.18
2018-05-14T20:26:50.510Z,15.10
2018-05-14T20:28:50.650Z,15.07
2018-05-14T20:30:50.808Z,14.98
2018-05-14T20:32:50.054Z,14.94
2018-05-14T20:34:50.451Z,14.88
2018-05-14T20:36:50.709Z,14.86
2018-05-14T20:38:50.819Z,14.87
2018-05-14T20:40:50.005Z,14.89
2018-05-14T20:42:50.117Z,14.91
2018-05-14T20:44:50.290Z,14.88
2018-05-14T20:46:50.520Z,14.86
2018-05-14T20:48:50.606Z,14.81
2018-05-14T20:50:50.793Z,14.76
2018-05-14T20:52:49.939Z,14.72
2018-05-14T20:54:50.107Z,14.61
2018-05-14T20:56:50.385Z,14.51
2018-05-14T20:58:50.484Z,14.48
2018-05-14T21:00:50.677Z,14.38
2018-05-14T21:02:50.792Z,14.39
2018-05-14T21:04:50.327Z,14.37
2018-05-14T21:06:50.546Z,14.26
2018-05-14T21:08:50.693Z,14.25
2018-05-14T21:10:50.865Z,14.22
2018-05-14T21:12:49.964Z,14.08
2018-05-14T21:14:50.799Z,14.02
2018-05-14T21:16:50.299Z,14.01
2018-05-14T21:18:50.400Z,13.92
2018-05-14T21:20:50.528Z,13.88
2018-05-14T21:22:50.718Z,13.82
2018-05-14T21:24:50.853Z,13.79
2018-05-14T21:26:50.230Z,13.74
2018-05-14T21:28:50.421Z,13.70
2018-05-14T21:30:50.565Z,13.70
2018-05-14T21:32:50.717Z,13.67
2018-05-14T21:34:50.052Z,13.59
2018-05-14T21:36:50.317Z,13.55
2018-05-14T21:38:50.459Z,13.55
2018-05-14T21:40:50.636Z,13.57
2018-05-14T21:42:50.008Z,13.61
2018-05-14T21:44:50.180Z,13.62
2018-05-14T21:46:50.382Z,13.63
2018-05-14T21:48:50.776Z,13.63
2018-05-14T21:50:49.910Z,13.58
2018-05-14T21:52:50.150Z,13.53
2018-05-14T21:54:50.314Z,13.49
2018-05-14T21:56:50.614Z,13.43
2018-05-14T21:58:50.758Z,13.37
2018-05-14T22:00:49.905Z,13.34
2018-05-14T22:02:50.028Z,13.26
2018-05-14T22:04:50.468Z,13.24
2018-05-14T22:06:50.702Z,13.13
2018-05-14T22:08:50.857Z,13.13
2018-05-14T22:10:49.996Z,13.07
2018-05-14T22:12:50.087Z,13.06
2018-05-14T22:14:50.205Z,13.03
2018-05-14T22:16:50.419Z,13.00
2018-05-14T22:18:50.476Z,13.01
2018-05-14T22:20:50.660Z,12.98
2018-05-14T22:22:50.756Z,12.95
2018-05-14T22:24:50.047Z,13.02
2018-05-14T22:26:50.461Z,13.05
2018-05-14T22:28:50.712Z,13.00
2018-05-14T22:30:50.015Z,13.00
2018-05-14T22:32:50.348Z,12.90
2018-05-14T22:34:50.883Z,12.86
2018-05-14T22:36:50.258Z,12.86
2018-05-14T22:38:50.601Z,12.83
2018-05-14T22:40:49.895Z,12.84
2018-05-14T22:42:50.447Z,12.81
2018-05-14T22:44:50.777Z,12.81
2018-05-14T22:46:50.330Z,12.82
2018-05-14T22:48:50.476Z,12.79
2018-05-14T22:50:50.745Z,12.78
2018-05-14T22:52:50.065Z,12.76
2018-05-14T22:54:50.345Z,12.75
2018-05-14T22:56:50.679Z,12.76
2018-05-14T22:58:50.153Z,12.78
2018-05-14T23:00:50.423Z,12.74
2018-05-14T23:02:50.619Z,12.67
2018-05-14T23:04:50.034Z,12.64
2018-05-14T23:06:50.470Z,12.62
2018-05-14T23:08:50.805Z,12.58
2018-05-14T23:10:50.087Z,12.56
2018-05-14T23:12:50.378Z,12.54
2018-05-14T23:14:50.621Z,12.52
2018-05-14T23:16:50.837Z,12.59
2018-05-14T23:18:50.180Z,12.55
2018-05-14T23:20:50.438Z,12.53
2018-05-14T23:22:50.615Z,12.51
2018-05-14T23:24:49.923Z,12.40
2018-05-14T23:26:50.370Z,12.34
2018-05-14T23:28:50.714Z,12.32
2018-05-14T23:30:50.891Z,12.34
2018-05-14T23:32:50.314Z,12.33
2018-05-14T23:34:50.746Z,12.30
2018-05-14T23:36:50.143Z,12.30
2018-05-14T23:38:50.482Z,12.30
2018-05-14T23:40:50.788Z,12.32
2018-05-14T23:42:50.189Z,12.41
2018-05-14T23:44:50.501Z,12.45
2018-05-14T23:46:49.929Z,12.40
2018-05-14T23:48:50.316Z,12.31
2018-05-14T23:50:50.646Z,12.21
2018-05-14T23:52:49.945Z,12.10
2018-05-14T23:54:50.264Z,11.98
2018-05-14T23:56:50.689Z,11.94
2018-05-14T23:58:50.096Z,11.93
